Weather at Cavern City Air Terminal

Public forecast

Using degrees Fahrenheit for public forecast. Weather courtesy of forecast.io.

Current aviation weather report (METAR) for Cavern City Air Terminal

Retrieved 2021/01/21 06:53 UTC (53 minutes ago):

KCNM 210653Z AUTO 20005KT 10SM CLR 07/02 A3010 RMK AO2 SLP180 T00670017 401170028

Aviation forecast (TAF) for Cavern City Air Terminal

Retrieved 2021/01/21 06:24 UTC (1 hour ago):

TAF KCNM 210521Z 2106/2206 15006KT P6SM OVC200 FM210800 27005KT P6SM OVC120